TAF KFOD
KFOD 280528Z 2806/2906 31005KT P6SM FEW150 FM282200 16005KT P6SM BKN090=
METAR KFOD
WC KFOD
WS KFOD
WV KFOD